Time;durP1;ratioP1;P1;durP2;ratioP2;P2;SDS_P1;SDS_P2;PMS_P1;PMS_P2;Temp;Humidity;BMP_temperature;BMP_pressure;BME280_temperature;BME280_humidity;BME280_pressure;Samples;Min_cycle;Max_cycle;Signal;HPM_P1;HPM_P2
2021/12/07 00:00:22;;;;;;;43.88;21.00;;;;;;;-145.45;100.00;62759.84;5306553;27;20067;-83
2021/12/07 00:02:54;;;;;;;43.25;22.52;;;;;;;-145.45;100.00;62759.84;5290401;27;20032;-83
2021/12/07 00:05:26;;;;;;;45.40;21.05;;;;;;;-145.45;100.00;62759.84;5309314;27;20486;-83
2021/12/07 00:07:58;;;;;;;43.97;23.75;;;;;;;-145.45;100.00;62759.84;5323897;27;20026;-83
2021/12/07 00:10:30;;;;;;;49.67;25.88;;;;;;;-145.45;100.00;62759.84;5302741;27;20037;-83
2021/12/07 00:13:02;;;;;;;50.95;25.92;;;;;;;-145.45;100.00;62759.84;5310746;28;20023;-84
2021/12/07 00:15:35;;;;;;;52.35;27.90;;;;;;;-145.45;100.00;62759.84;5299462;27;20032;-84
2021/12/07 00:18:07;;;;;;;55.13;26.77;;;;;;;-145.45;100.00;62759.84;5296753;28;20499;-84
2021/12/07 00:20:39;;;;;;;57.58;29.58;;;;;;;-145.45;100.00;62759.84;5290874;28;20064;-83
2021/12/07 00:23:11;;;;;;;60.25;28.90;;;;;;;-145.45;100.00;62759.84;5310729;28;20072;-83
2021/12/07 00:25:42;;;;;;;60.10;29.38;;;;;;;-145.45;100.00;62759.84;5297582;28;20534;-83
2021/12/07 00:28:14;;;;;;;59.08;28.27;;;;;;;-145.45;100.00;62759.84;5290588;28;20013;-83
2021/12/07 00:30:48;;;;;;;62.47;34.67;;;;;;;-145.45;100.00;62759.84;5296480;28;20094;-82
2021/12/07 00:35:56;;;;;;;74.18;32.45;;;;;;;-145.45;100.00;62759.84;5324330;27;20403;-83
2021/12/07 00:38:28;;;;;;;72.28;35.20;;;;;;;-145.45;100.00;62759.84;5298060;28;20024;-83
2021/12/07 00:41:01;;;;;;;72.50;34.22;;;;;;;-145.45;100.00;62759.84;5285844;28;20045;-83
2021/12/07 00:43:33;;;;;;;79.43;32.08;;;;;;;-145.45;100.00;62759.84;5307106;28;20024;-83
2021/12/07 00:46:07;;;;;;;79.30;37.45;;;;;;;-145.45;100.00;62759.84;5298794;28;20028;-83
2021/12/07 00:48:39;;;;;;;74.00;35.92;;;;;;;-145.45;100.00;62759.84;5296258;28;20396;-83
2021/12/07 00:51:10;;;;;;;79.40;34.97;;;;;;;-145.45;100.00;62759.84;5305102;28;20092;-83
2021/12/07 00:53:42;;;;;;;76.22;33.72;;;;;;;-145.45;100.00;62759.84;5301650;28;20535;-83
2021/12/07 00:56:17;;;;;;;71.60;34.30;;;;;;;-145.45;100.00;62759.84;5316464;27;20412;-84
2021/12/07 00:58:51;;;;;;;75.22;31.42;;;;;;;-145.45;100.00;62759.84;5303205;28;20074;-83
2021/12/07 01:01:23;;;;;;;75.97;32.97;;;;;;;-145.45;100.00;62759.84;5300597;28;20035;-84
2021/12/07 01:03:55;;;;;;;80.00;30.05;;;;;;;-145.45;100.00;62759.84;5317016;28;20024;-83
2021/12/07 01:06:31;;;;;;;72.57;32.92;;;;;;;-145.45;100.00;62759.84;5296455;28;20028;-84
2021/12/07 01:25:57;;;;;;;68.90;31.92;;;;;;;-145.45;100.00;62759.84;5314408;27;20032;-84
2021/12/07 01:28:36;;;;;;;75.07;32.45;;;;;;;-145.45;100.00;62759.84;5301550;28;20413;-84
2021/12/07 01:31:51;;;;;;;63.55;29.17;;;;;;;-145.45;100.00;62759.84;5298547;28;20028;-83
2021/12/07 01:37:32;;;;;;;70.43;29.02;;;;;;;-145.45;100.00;62759.84;5310060;27;20381;-83
2021/12/07 01:40:25;;;;;;;67.38;30.83;;;;;;;-145.45;100.00;62759.84;5296763;27;20044;-83
2021/12/07 01:59:35;;;;;;;46.60;17.83;;;;;;;-145.45;100.00;62759.84;5317402;28;20036;-83
2021/12/07 02:02:10;;;;;;;41.17;17.40;;;;;;;-145.45;100.00;62759.84;5295249;28;20032;-84
2021/12/07 02:04:42;;;;;;;47.47;16.50;;;;;;;-145.45;100.00;62759.84;5291611;28;20025;-84
2021/12/07 02:07:15;;;;;;;39.40;14.18;;;;;;;-145.45;100.00;62759.84;5309699;28;20031;-83
2021/12/07 02:09:52;;;;;;;35.15;15.25;;;;;;;-145.45;100.00;62759.84;5304298;28;20122;-84
2021/12/07 02:12:24;;;;;;;48.90;15.48;;;;;;;-145.45;100.00;62759.84;5297821;28;20112;-84
2021/12/07 02:14:56;;;;;;;36.28;13.07;;;;;;;-145.45;100.00;62759.84;5295320;28;20483;-84
2021/12/07 02:17:28;;;;;;;43.80;14.80;;;;;;;-145.45;100.00;62759.84;5300868;28;20037;-84
2021/12/07 02:19:59;;;;;;;40.97;12.45;;;;;;;-145.45;100.00;62759.84;5293872;28;20044;-83
2021/12/07 02:22:31;;;;;;;42.22;11.82;;;;;;;-145.45;100.00;62759.84;5303066;28;20506;-84
2021/12/07 02:25:07;;;;;;;36.15;10.35;;;;;;;-145.45;100.00;62759.84;5299653;28;20032;-84
2021/12/07 02:27:39;;;;;;;36.58;9.95;;;;;;;-145.45;100.00;62759.84;5300238;28;20033;-83
2021/12/07 02:30:13;;;;;;;30.20;8.45;;;;;;;-145.45;100.00;62759.84;5299735;27;20084;-83
2021/12/07 02:32:54;;;;;;;36.85;8.52;;;;;;;-145.45;100.00;62759.84;5301589;28;20436;-84
2021/12/07 02:35:28;;;;;;;19.02;5.53;;;;;;;-145.45;100.00;62759.84;5303143;28;20032;-84
2021/12/07 02:37:59;;;;;;;27.73;7.15;;;;;;;-145.45;100.00;62759.84;5294819;28;20059;-84
2021/12/07 02:40:32;;;;;;;33.00;9.05;;;;;;;-145.45;100.00;62759.84;5302453;28;20099;-84
2021/12/07 02:43:03;;;;;;;26.83;6.82;;;;;;;-145.45;100.00;62759.84;5293312;28;20040;-84
2021/12/07 02:45:38;;;;;;;23.27;8.35;;;;;;;-145.45;100.00;62759.84;5300067;28;20065;-84
2021/12/07 02:48:10;;;;;;;30.75;8.18;;;;;;;-145.45;100.00;62759.84;5301245;28;20353;-84
2021/12/07 02:50:41;;;;;;;26.63;6.75;;;;;;;-145.45;100.00;62759.84;5309742;27;20027;-83
2021/12/07 02:53:14;;;;;;;30.52;7.40;;;;;;;-145.45;100.00;62759.84;5295010;28;20127;-84
2021/12/07 02:55:46;;;;;;;33.95;7.78;;;;;;;-145.45;100.00;62759.84;5296925;28;20032;-84
2021/12/07 02:58:20;;;;;;;28.30;6.97;;;;;;;-145.45;100.00;62759.84;5293705;28;20082;-84
2021/12/07 03:01:06;;;;;;;33.03;6.43;;;;;;;-145.45;100.00;62759.84;5295953;28;20032;-84
2021/12/07 03:03:50;;;;;;;28.20;6.50;;;;;;;-145.45;100.00;62759.84;5290284;28;20492;-83
2021/12/07 03:06:44;;;;;;;31.80;6.50;;;;;;;-145.45;100.00;62759.84;5317251;28;20101;-84
2021/12/07 03:26:15;;;;;;;33.63;6.90;;;;;;;-145.45;100.00;62759.84;5329797;27;20036;-84
2021/12/07 03:28:54;;;;;;;26.98;5.63;;;;;;;-145.45;100.00;62759.84;5309658;27;20039;-84
2021/12/07 03:31:27;;;;;;;31.13;7.30;;;;;;;-145.45;100.00;62759.84;5293468;28;20131;-84
2021/12/07 03:34:01;;;;;;;28.33;6.10;;;;;;;-145.45;100.00;62759.84;5318458;28;20048;-83
2021/12/07 03:36:32;;;;;;;27.98;6.57;;;;;;;-145.45;100.00;62759.84;5287939;28;20899;-83
2021/12/07 03:39:06;;;;;;;31.02;6.00;;;;;;;-145.45;100.00;62759.84;5319936;28;20032;-82
2021/12/07 03:41:38;;;;;;;31.83;7.07;;;;;;;-145.45;100.00;62759.84;5299434;28;20040;-83
2021/12/07 03:44:10;;;;;;;32.72;7.35;;;;;;;-145.45;100.00;62759.84;5297403;28;20047;-84
2021/12/07 03:46:44;;;;;;;32.22;6.68;;;;;;;-145.45;100.00;62759.84;5318481;28;20556;-83
2021/12/07 03:49:16;;;;;;;34.63;6.35;;;;;;;-145.45;100.00;62759.84;5300850;28;20394;-84
2021/12/07 03:51:50;;;;;;;34.75;6.60;;;;;;;-145.45;100.00;62759.84;5299698;28;20031;-83
2021/12/07 03:54:22;;;;;;;37.33;7.45;;;;;;;-145.45;100.00;62759.84;5293142;28;20052;-83
2021/12/07 03:56:53;;;;;;;30.85;6.57;;;;;;;-145.45;100.00;62759.84;5323114;27;20801;-83
2021/12/07 03:59:25;;;;;;;30.05;6.22;;;;;;;-145.45;100.00;62759.84;5312753;27;20414;-84
2021/12/07 04:01:57;;;;;;;32.55;6.78;;;;;;;-145.45;100.00;62759.84;5314509;27;20035;-84
2021/12/07 04:04:29;;;;;;;27.73;6.68;;;;;;;-145.45;100.00;62759.84;5300918;28;20027;-84
2021/12/07 04:07:00;;;;;;;25.33;6.30;;;;;;;-145.45;100.00;62759.84;5306060;27;20795;-84
2021/12/07 04:09:32;;;;;;;32.22;6.22;;;;;;;-145.45;100.00;62759.84;5305646;27;20513;-84
2021/12/07 04:12:04;;;;;;;33.05;7.30;;;;;;;-145.45;100.00;62759.84;5302911;27;20215;-84
2021/12/07 04:14:36;;;;;;;34.25;6.50;;;;;;;-145.45;100.00;62759.84;5303785;27;20121;-84
2021/12/07 04:17:08;;;;;;;26.67;6.22;;;;;;;-145.45;100.00;62759.84;5297303;27;20476;-83
2021/12/07 04:19:39;;;;;;;29.55;7.43;;;;;;;-145.45;100.00;62759.84;5299096;28;20037;-83
2021/12/07 04:22:11;;;;;;;25.38;6.75;;;;;;;-145.45;100.00;62759.84;5307024;28;20051;-84
2021/12/07 04:24:42;;;;;;;30.55;6.40;;;;;;;-145.45;100.00;62759.84;5303998;28;20051;-82
2021/12/07 04:27:14;;;;;;;32.45;6.50;;;;;;;-145.45;100.00;62759.84;5314321;27;20085;-83
2021/12/07 04:29:47;;;;;;;32.17;6.18;;;;;;;-145.45;100.00;62759.84;5317432;27;20025;-83
2021/12/07 04:32:18;;;;;;;25.67;6.97;;;;;;;-145.45;100.00;62759.84;5312188;27;20031;-83
2021/12/07 04:34:50;;;;;;;37.33;5.93;;;;;;;-145.45;100.00;62759.84;5307815;27;20029;-84
2021/12/07 04:37:22;;;;;;;33.03;5.57;;;;;;;-145.45;100.00;62759.84;5312202;28;20024;-83
2021/12/07 04:39:53;;;;;;;24.40;4.72;;;;;;;-145.45;100.00;62759.84;5329813;27;20043;-84
2021/12/07 04:42:26;;;;;;;22.90;4.97;;;;;;;-145.45;100.00;62759.84;5305773;27;20127;-84
2021/12/07 04:45:02;;;;;;;43.45;6.40;;;;;;;-145.45;100.00;62759.84;5312002;28;20028;-84
2021/12/07 04:48:02;;;;;;;24.17;5.72;;;;;;;-145.45;100.00;62759.84;5303327;28;20055;-84
2021/12/07 04:58:46;;;;;;;24.27;4.93;;;;;;;-145.45;100.00;62759.84;5339032;27;20037;-83
2021/12/07 05:01:18;;;;;;;22.73;5.18;;;;;;;-145.45;100.00;62759.84;5311447;28;20051;-84
2021/12/07 05:03:51;;;;;;;24.85;5.82;;;;;;;-145.45;100.00;62759.84;5315682;27;20036;-83
2021/12/07 05:06:27;;;;;;;29.88;6.57;;;;;;;-145.45;100.00;62759.84;5312671;27;20028;-83
2021/12/07 05:09:17;;;;;;;18.33;5.43;;;;;;;-145.45;100.00;62759.84;5308997;27;20031;-85
2021/12/07 05:12:17;;;;;;;25.63;5.20;;;;;;;-145.45;100.00;62759.84;5316226;27;20394;-83
2021/12/07 05:14:44;;;;;;;24.08;6.85;;;;;;;-145.45;100.00;62759.84;5338122;27;20399;-85
2021/12/07 05:17:37;;;;;;;32.45;6.78;;;;;;;-145.45;100.00;62759.84;5310673;27;20099;-84
2021/12/07 05:34:35;;;;;;;28.40;5.40;;;;;;;-145.45;100.00;62759.84;5326162;27;20166;-84
2021/12/07 05:37:46;;;;;;;39.15;9.55;;;;;;;-145.45;100.00;62759.84;5317914;27;20032;-84
2021/12/07 05:40:20;;;;;;;35.70;11.10;;;;;;;-145.45;100.00;62759.84;5299451;27;20043;-84
2021/12/07 05:42:57;;;;;;;36.33;11.60;;;;;;;-145.45;100.00;62759.84;5308003;28;20048;-84
2021/12/07 05:45:35;;;;;;;40.38;13.02;;;;;;;-145.45;100.00;62759.84;5293708;27;20039;-84
2021/12/07 05:48:07;;;;;;;42.25;13.07;;;;;;;-145.45;100.00;62759.84;5305548;28;20032;-84
2021/12/07 05:50:41;;;;;;;41.40;15.27;;;;;;;-145.45;100.00;62759.84;5305728;27;20542;-83
2021/12/07 05:53:13;;;;;;;48.60;15.80;;;;;;;-145.45;100.00;62759.84;5332762;27;20034;-84
2021/12/07 05:55:45;;;;;;;48.63;17.42;;;;;;;-145.45;100.00;62759.84;5306729;27;20027;-84
2021/12/07 05:58:19;;;;;;;49.03;17.90;;;;;;;-145.45;100.00;62759.84;5299074;28;20035;-85
2021/12/07 06:00:51;;;;;;;44.45;17.60;;;;;;;-145.45;100.00;62759.84;5298535;27;20044;-85
2021/12/07 06:03:22;;;;;;;53.85;17.77;;;;;;;-145.45;100.00;62759.84;5297841;28;20032;-85
2021/12/07 06:05:54;;;;;;;53.25;18.88;;;;;;;-145.45;100.00;62759.84;5314419;27;20401;-84
2021/12/07 06:08:26;;;;;;;39.22;16.08;;;;;;;-145.45;100.00;62759.84;5301046;27;20028;-84
2021/12/07 06:10:58;;;;;;;64.65;19.77;;;;;;;-145.45;100.00;62759.84;5307002;27;20024;-86
2021/12/07 06:13:29;;;;;;;53.20;16.40;;;;;;;-145.45;100.00;62759.84;5307726;27;20033;-84
2021/12/07 06:16:06;;;;;;;49.15;17.10;;;;;;;-145.45;100.00;62759.84;5312126;27;20429;-85
2021/12/07 06:18:38;;;;;;;46.85;15.57;;;;;;;-145.45;100.00;62759.84;5312413;27;20043;-85
2021/12/07 06:21:10;;;;;;;56.05;18.35;;;;;;;-145.45;100.00;62759.84;5301054;28;20492;-85
2021/12/07 06:23:42;;;;;;;53.95;16.42;;;;;;;-145.45;100.00;62759.84;5312124;27;20041;-85
2021/12/07 06:26:14;;;;;;;53.47;16.92;;;;;;;-145.45;100.00;62759.84;5302060;28;20044;-86
2021/12/07 06:28:49;;;;;;;59.58;19.17;;;;;;;-145.45;100.00;62759.84;5297496;28;20028;-85
2021/12/07 06:31:21;;;;;;;56.90;19.15;;;;;;;-145.45;100.00;62759.84;5305206;28;20549;-84
2021/12/07 06:34:10;;;;;;;53.65;20.50;;;;;;;-145.45;100.00;62759.84;5302045;28;20028;-84
2021/12/07 06:36:44;;;;;;;63.60;21.95;;;;;;;-145.45;100.00;62759.84;5268207;28;20071;-84
2021/12/07 06:39:16;;;;;;;55.83;21.50;;;;;;;-145.45;100.00;62759.84;5268070;28;20041;-84
2021/12/07 06:41:47;;;;;;;60.38;22.90;;;;;;;-145.45;100.00;62759.84;5270740;28;20052;-84
2021/12/07 06:44:22;;;;;;;63.70;21.15;;;;;;;-145.45;100.00;62759.84;5284480;28;20510;-84
2021/12/07 06:46:54;;;;;;;63.67;23.98;;;;;;;-145.45;100.00;62759.84;5270606;28;20120;-84
2021/12/07 06:49:26;;;;;;;52.70;21.98;;;;;;;-145.45;100.00;62759.84;5288667;28;20020;-84
2021/12/07 06:51:58;;;;;;;59.65;22.08;;;;;;;-145.45;100.00;62759.84;5283232;28;20044;-84
2021/12/07 06:54:31;;;;;;;62.78;23.35;;;;;;;-145.45;100.00;62759.84;5293413;28;20025;-83
2021/12/07 06:57:03;;;;;;;63.97;24.55;;;;;;;-145.45;100.00;62759.84;5285444;28;20055;-84
2021/12/07 06:59:35;;;;;;;74.35;26.88;;;;;;;-145.45;100.00;62759.84;5283950;28;20105;-85
2021/12/07 07:02:09;;;;;;;60.05;23.70;;;;;;;-145.45;100.00;62759.84;5285157;28;20029;-85
2021/12/07 07:04:41;;;;;;;57.33;20.95;;;;;;;-145.45;100.00;62759.84;5284000;28;20397;-84
2021/12/07 07:07:13;;;;;;;55.75;22.85;;;;;;;-145.45;100.00;62759.84;5278245;28;20036;-85
2021/12/07 07:09:45;;;;;;;58.03;21.05;;;;;;;-145.45;100.00;62759.84;5280826;28;20128;-84
2021/12/07 07:12:17;;;;;;;53.95;19.67;;;;;;;-145.45;100.00;62759.84;5293359;28;20549;-84
2021/12/07 07:14:49;;;;;;;60.95;21.35;;;;;;;-145.45;100.00;62759.84;5296460;27;20024;-85
2021/12/07 07:17:20;;;;;;;55.13;20.25;;;;;;;-145.45;100.00;62759.84;5305798;28;20054;-84
2021/12/07 07:19:52;;;;;;;59.85;20.52;;;;;;;-145.45;100.00;62759.84;5307002;28;20043;-84
2021/12/07 07:22:23;;;;;;;78.82;21.45;;;;;;;-145.45;100.00;62759.84;5307106;28;20534;-83
2021/12/07 07:24:55;;;;;;;60.75;20.23;;;;;;;-145.45;100.00;62759.84;5306580;28;20506;-82
2021/12/07 07:27:27;;;;;;;65.72;21.52;;;;;;;-145.45;100.00;62759.84;5306616;28;20020;-82
2021/12/07 07:29:58;;;;;;;57.40;21.50;;;;;;;-145.45;100.00;62759.84;5307004;28;20018;-83
2021/12/07 07:32:31;;;;;;;51.83;21.33;;;;;;;-145.45;100.00;62759.84;5325892;28;20046;-83
2021/12/07 07:35:04;;;;;;;57.95;23.38;;;;;;;-145.45;100.00;62759.84;5306264;28;20016;-82
2021/12/07 07:37:37;;;;;;;60.67;23.20;;;;;;;-145.45;100.00;62759.84;5307157;28;20023;-83
2021/12/07 07:40:12;;;;;;;63.65;23.17;;;;;;;-145.45;100.00;62759.84;5305807;28;20028;-83
2021/12/07 07:42:44;;;;;;;71.15;22.25;;;;;;;-145.45;100.00;62759.84;5306157;28;20036;-83
2021/12/07 07:45:16;;;;;;;62.53;23.20;;;;;;;-145.45;100.00;62759.84;5306966;28;20024;-83
2021/12/07 07:47:48;;;;;;;57.50;21.98;;;;;;;-145.45;100.00;62759.84;5306445;28;20040;-83
2021/12/07 07:50:24;;;;;;;71.60;23.15;;;;;;;-145.45;100.00;62759.84;5306349;28;20400;-83
2021/12/07 07:52:55;;;;;;;59.65;22.67;;;;;;;-145.45;100.00;62759.84;5306385;28;20062;-83
2021/12/07 07:55:27;;;;;;;55.65;21.08;;;;;;;-145.45;100.00;62759.84;5305179;28;20051;-83
2021/12/07 07:57:59;;;;;;;47.83;19.75;;;;;;;-145.45;100.00;62759.84;5306422;28;20024;-83
2021/12/07 08:00:31;;;;;;;52.38;19.60;;;;;;;-145.45;100.00;62759.84;5305876;28;20028;-83
2021/12/07 08:03:03;;;;;;;47.90;19.50;;;;;;;-145.45;100.00;62759.84;5308856;27;20024;-83
2021/12/07 08:05:35;;;;;;;58.53;21.20;;;;;;;-145.45;100.00;62759.84;5315344;28;20345;-83
2021/12/07 08:08:06;;;;;;;62.38;20.33;;;;;;;-145.45;100.00;62759.84;5285233;28;20031;-83
2021/12/07 08:10:38;;;;;;;56.05;18.98;;;;;;;-145.45;100.00;62759.84;5302992;28;20021;-82
2021/12/07 08:13:10;;;;;;;57.92;20.25;;;;;;;-145.45;100.00;62759.84;5304211;28;20032;-82
2021/12/07 08:15:43;;;;;;;51.13;18.73;;;;;;;-145.45;100.00;62759.84;5285181;28;20021;-83
2021/12/07 08:18:15;;;;;;;51.78;18.77;;;;;;;-145.45;100.00;62759.84;5285816;28;20037;-82
2021/12/07 08:20:47;;;;;;;48.55;17.83;;;;;;;-145.45;100.00;62759.84;5284856;28;20039;-83
2021/12/07 08:23:21;;;;;;;43.47;17.67;;;;;;;-145.45;100.00;62759.84;5286315;28;20025;-82
2021/12/07 08:25:56;;;;;;;33.45;15.43;;;;;;;-145.45;100.00;62759.84;5285645;28;20025;-82
2021/12/07 08:28:27;;;;;;;42.65;15.02;;;;;;;-145.45;100.00;62759.84;5286611;28;20032;-82
2021/12/07 08:30:59;;;;;;;41.33;15.00;;;;;;;-145.45;100.00;62759.84;5285685;28;20388;-81
2021/12/07 08:33:32;;;;;;;40.15;14.55;;;;;;;-145.45;100.00;62759.84;5285385;28;20514;-83
2021/12/07 08:36:03;;;;;;;36.72;13.73;;;;;;;-145.45;100.00;62759.84;5285232;28;20029;-83
2021/12/07 08:38:36;;;;;;;32.60;11.80;;;;;;;-145.45;100.00;62759.84;5306055;28;20016;-83
2021/12/07 08:41:08;;;;;;;34.50;13.27;;;;;;;-145.45;100.00;62759.84;5301094;28;20045;-83
2021/12/07 08:43:41;;;;;;;33.22;11.32;;;;;;;-145.45;100.00;62759.84;5285680;28;20067;-83
2021/12/07 08:46:15;;;;;;;35.78;11.68;;;;;;;-145.45;100.00;62759.84;5285389;28;20032;-83
2021/12/07 08:48:47;;;;;;;27.20;11.73;;;;;;;-145.45;100.00;62759.84;5285763;28;20021;-83
2021/12/07 08:51:18;;;;;;;31.70;10.95;;;;;;;-145.45;100.00;62759.84;5285594;28;20019;-83
2021/12/07 08:53:59;;;;;;;31.95;9.82;;;;;;;-145.45;100.00;62759.84;5285779;28;20021;-83
2021/12/07 09:02:33;;;;;;;33.60;10.65;;;;;;;-145.45;100.00;62759.84;5216905;28;20491;-83
2021/12/07 09:05:04;;;;;;;24.08;8.75;;;;;;;-145.45;100.00;62759.84;5200871;28;20396;-84
2021/12/07 09:07:36;;;;;;;29.90;9.75;;;;;;;-145.45;100.00;62759.84;5237630;28;20134;-83
2021/12/07 09:10:08;;;;;;;27.63;9.85;;;;;;;-145.45;100.00;62759.84;5267286;28;20025;-83
2021/12/07 09:12:40;;;;;;;26.67;9.55;;;;;;;-145.45;100.00;62759.84;5267669;28;20127;-83
2021/12/07 09:15:12;;;;;;;30.35;9.40;;;;;;;-145.45;100.00;62759.84;5267230;28;20021;-83
2021/12/07 09:17:43;;;;;;;24.27;9.05;;;;;;;-145.45;100.00;62759.84;5267435;28;20025;-83
2021/12/07 09:20:16;;;;;;;25.25;9.10;;;;;;;-145.45;100.00;62759.84;5267735;28;20029;-83
2021/12/07 09:22:48;;;;;;;25.85;9.57;;;;;;;-145.45;100.00;62759.84;5267047;28;20044;-83
2021/12/07 09:25:19;;;;;;;26.05;8.85;;;;;;;-145.45;100.00;62759.84;5266587;28;20032;-83
2021/12/07 09:27:51;;;;;;;21.50;8.48;;;;;;;-145.45;100.00;62759.84;5267371;28;20091;-84
2021/12/07 09:30:24;;;;;;;26.08;8.27;;;;;;;-145.45;100.00;62759.84;5267210;28;20484;-83
2021/12/07 09:32:55;;;;;;;29.10;9.27;;;;;;;-145.45;100.00;62759.84;5270601;28;20088;-83
2021/12/07 09:35:28;;;;;;;26.02;8.75;;;;;;;-145.45;100.00;62759.84;5269449;28;20036;-83
2021/12/07 09:38:00;;;;;;;27.17;8.23;;;;;;;-145.45;100.00;62759.84;5269200;28;20442;-83
2021/12/07 09:40:31;;;;;;;22.10;7.82;;;;;;;-145.45;100.00;62759.84;5268477;28;20458;-83
2021/12/07 09:43:03;;;;;;;28.50;8.65;;;;;;;-145.45;100.00;62759.84;5282501;28;20051;-82
2021/12/07 09:45:36;;;;;;;24.42;9.70;;;;;;;-145.45;100.00;62759.84;5283546;28;20726;-84
2021/12/07 09:48:10;;;;;;;26.23;8.20;;;;;;;-145.45;100.00;62759.84;5283353;28;20039;-84
2021/12/07 09:50:45;;;;;;;24.90;8.77;;;;;;;-145.45;100.00;62759.84;5282935;28;20029;-83
2021/12/07 09:53:17;;;;;;;20.05;8.85;;;;;;;-145.45;100.00;62759.84;5279861;28;20565;-83
2021/12/07 09:55:49;;;;;;;22.42;7.55;;;;;;;-145.45;100.00;62759.84;5286991;28;20078;-82
2021/12/07 09:58:22;;;;;;;32.50;8.50;;;;;;;-145.45;100.00;62759.84;5287521;28;20032;-82
2021/12/07 10:00:54;;;;;;;23.95;8.18;;;;;;;-145.45;100.00;62759.84;5287452;28;20024;-82
2021/12/07 10:03:26;;;;;;;20.38;7.28;;;;;;;-145.45;100.00;62759.84;5287220;28;20032;-83
2021/12/07 10:05:57;;;;;;;21.20;7.35;;;;;;;-145.45;100.00;62759.84;5296358;28;20085;-82
2021/12/07 10:08:29;;;;;;;23.23;7.38;;;;;;;-145.45;100.00;62759.84;5308514;28;20028;-82
2021/12/07 10:11:02;;;;;;;22.85;7.00;;;;;;;-145.45;100.00;62759.84;5307845;28;20030;-82
2021/12/07 10:13:34;;;;;;;32.58;7.45;;;;;;;-145.45;100.00;62759.84;5308369;28;20464;-83
2021/12/07 10:16:08;;;;;;;20.65;7.97;;;;;;;-145.45;100.00;62759.84;5308496;28;20031;-83
2021/12/07 10:18:42;;;;;;;24.77;6.88;;;;;;;-145.45;100.00;62759.84;5308178;28;20020;-83
2021/12/07 10:21:24;;;;;;;20.67;7.35;;;;;;;-145.45;100.00;62759.84;5307725;28;20032;-83
2021/12/07 10:24:07;;;;;;;26.73;7.35;;;;;;;-145.45;100.00;62759.84;5306654;28;20591;-83
2021/12/07 10:26:42;;;;;;;24.80;6.65;;;;;;;-145.45;100.00;62759.84;5307652;28;20027;-83
2021/12/07 10:29:22;;;;;;;24.08;6.97;;;;;;;-145.45;100.00;62759.84;5307815;28;20385;-82
2021/12/07 10:32:00;;;;;;;23.45;6.88;;;;;;;-145.45;100.00;62759.84;5307471;28;20027;-82
2021/12/07 10:34:36;;;;;;;25.02;7.35;;;;;;;-145.45;100.00;62759.84;5307851;28;20023;-84
2021/12/07 10:37:11;;;;;;;25.73;7.13;;;;;;;-145.45;100.00;62759.84;5326780;28;20051;-84
2021/12/07 10:39:46;;;;;;;21.48;7.47;;;;;;;-145.45;100.00;62759.84;5306623;28;20035;-83
2021/12/07 10:42:21;;;;;;;25.00;7.95;;;;;;;-145.45;100.00;62759.84;5326272;28;20086;-84
2021/12/07 10:44:53;;;;;;;30.20;8.40;;;;;;;-145.45;100.00;62759.84;5307348;28;20027;-84
2021/12/07 10:47:26;;;;;;;23.73;6.72;;;;;;;-145.45;100.00;62759.84;5308318;28;20016;-83
2021/12/07 10:50:00;;;;;;;21.70;7.25;;;;;;;-145.45;100.00;62759.84;5307792;28;20031;-83
2021/12/07 10:53:20;;;;;;;28.00;7.55;;;;;;;-145.45;100.00;62759.84;5307818;28;20020;-83
2021/12/07 11:00:00;;;;;;;134.40;18.20;;;;;;;-145.45;100.00;62759.84;5246962;28;20041;-84
2021/12/07 11:03:15;;;;;;;70.88;9.65;;;;;;;-145.45;100.00;62759.84;5222485;28;20061;-84
2021/12/07 11:09:46;;;;;;;9.52;4.07;;;;;;;-145.45;100.00;62759.84;5215136;28;20024;-84
2021/12/07 11:12:56;;;;;;;9.18;3.47;;;;;;;-145.45;100.00;62759.84;5264363;28;20029;-84
2021/12/07 11:16:02;;;;;;;12.63;4.05;;;;;;;-145.45;100.00;62759.84;5303765;28;20059;-84
2021/12/07 11:18:58;;;;;;;15.82;4.82;;;;;;;-145.45;100.00;62759.84;5285534;28;20028;-84
2021/12/07 11:25:52;;;;;;;;;;;;;;;;;;;;;
2021/12/07 11:32:24;;;;;;;;;;;;;;;;;;;;;
2021/12/07 11:39:00;;;;;;;12.85;4.28;;;;;;;-145.45;100.00;62759.84;5254821;28;20438;-83
2021/12/07 11:41:44;;;;;;;12.93;5.65;;;;;;;-145.45;100.00;62759.84;5261348;28;20132;-84
2021/12/07 11:52:10;;;;;;;15.48;4.72;;;;;;;-145.45;100.00;62759.84;5217572;28;20038;-85
2021/12/07 11:55:23;;;;;;;13.38;4.72;;;;;;;-145.45;100.00;62759.84;5210731;28;20038;-83
2021/12/07 11:57:58;;;;;;;11.52;4.05;;;;;;;-145.45;100.00;62759.84;5296369;28;20177;-84
2021/12/07 12:01:13;;;;;;;12.15;3.88;;;;;;;-145.45;100.00;62759.84;5310695;28;20409;-84
2021/12/07 12:04:29;;;;;;;15.00;4.07;;;;;;;-145.45;100.00;62759.84;5298800;28;20044;-84
2021/12/07 12:07:19;;;;;;;13.85;4.75;;;;;;;-145.45;100.00;62759.84;5272244;28;20040;-84
2021/12/07 12:10:17;;;;;;;12.75;3.83;;;;;;;-145.45;100.00;62759.84;5285163;28;20068;-84
2021/12/07 12:13:10;;;;;;;;;;;;;;;-145.45;100.00;62759.84;5308959;28;20516;-83
2021/12/07 12:16:19;;;;;;;12.85;3.45;;;;;;;-145.45;100.00;62759.84;5295324;28;19916;-84
2021/12/07 12:19:46;;;;;;;13.95;4.28;;;;;;;-145.45;100.00;62759.84;5311446;28;20032;-83
2021/12/07 12:23:02;;;;;;;12.88;3.20;;;;;;;-145.45;100.00;62759.84;5305420;28;20059;-83
2021/12/07 12:29:51;;;;;;;12.27;3.65;;;;;;;-145.45;100.00;62759.84;5257714;28;20499;-83
2021/12/07 12:32:54;;;;;;;;;;;;;;;-145.45;100.00;62759.84;5313475;28;20040;-83
2021/12/07 12:35:59;;;;;;;12.52;3.50;;;;;;;-145.45;100.00;62759.84;5313172;28;20141;-83
2021/12/07 12:39:08;;;;;;;10.68;3.20;;;;;;;-145.45;100.00;62759.84;5276157;27;20059;-83
2021/12/07 12:41:58;;;;;;;15.05;3.20;;;;;;;-145.45;100.00;62759.84;5294390;28;20041;-84
2021/12/07 12:44:54;;;;;;;11.68;3.75;;;;;;;-145.45;100.00;62759.84;5294875;28;20032;-84
2021/12/07 12:47:56;;;;;;;10.48;3.00;;;;;;;-145.45;100.00;62759.84;5296981;28;20127;-84
2021/12/07 12:51:00;;;;;;;11.10;2.90;;;;;;;-145.45;100.00;62759.84;5296426;28;20032;-84
2021/12/07 12:53:38;;;;;;;12.90;3.25;;;;;;;-145.45;100.00;62759.84;5315784;28;20432;-84
2021/12/07 12:56:21;;;;;;;12.35;3.25;;;;;;;-145.45;100.00;62759.84;5320027;28;20028;-83
2021/12/07 12:59:21;;;;;;;11.77;3.13;;;;;;;-145.45;100.00;62759.84;5302150;28;20092;-84
2021/12/07 13:02:35;;;;;;;;;;;;;;;;;;;;;
2021/12/07 13:05:18;;;;;;;14.52;3.10;;;;;;;-145.45;100.00;62759.84;5319453;27;42618;-84
2021/12/07 13:08:17;;;;;;;9.75;2.60;;;;;;;-145.45;100.00;62759.84;5322745;27;20392;-84
2021/12/07 13:11:15;;;;;;;14.35;2.58;;;;;;;-145.45;100.00;62759.84;5289548;28;20434;-84
2021/12/07 13:14:19;;;;;;;10.38;3.35;;;;;;;-145.45;100.00;62759.84;5288037;28;20082;-84
2021/12/07 13:17:39;;;;;;;12.27;2.67;;;;;;;-145.45;100.00;62759.84;5240229;28;20452;-84
2021/12/07 13:24:04;;;;;;;13.70;2.40;;;;;;;-145.45;100.00;62759.84;5249981;28;20029;-84
2021/12/07 13:26:51;;;;;;;9.27;2.67;;;;;;;-145.45;100.00;62759.84;5219743;28;20051;-84
2021/12/07 13:29:34;;;;;;;13.82;2.92;;;;;;;-145.45;100.00;62759.84;5265023;28;20033;-83
2021/12/07 13:32:33;;;;;;;9.10;2.40;;;;;;;-145.45;100.00;62759.84;5265459;28;20025;-84
2021/12/07 13:36:01;;;;;;;10.73;3.30;;;;;;;-145.45;100.00;62759.84;5281035;28;20506;-84
2021/12/07 13:39:01;;;;;;;10.15;2.22;;;;;;;-145.45;100.00;62759.84;5283082;28;20051;-83
2021/12/07 13:42:17;;;;;;;11.98;2.40;;;;;;;-145.45;100.00;62759.84;5281230;28;20029;-84
2021/12/07 13:45:39;;;;;;;10.50;2.40;;;;;;;-145.45;100.00;62759.84;5245434;28;20041;-84
2021/12/07 13:48:49;;;;;;;9.55;2.50;;;;;;;-145.45;100.00;62759.84;5239644;28;20935;-84
2021/12/07 13:51:23;;;;;;;10.23;2.47;;;;;;;-145.45;100.00;62759.84;5264958;28;20083;-84